createdAt,value
2018-10-02T00:02:19.136Z,8.08
2018-10-02T00:04:47.410Z,7.62
2018-10-02T00:07:15.627Z,7.83
2018-10-02T00:09:43.796Z,8.58
2018-10-02T00:12:17.443Z,8.93
2018-10-02T00:14:45.597Z,9.00
2018-10-02T00:17:13.800Z,9.30
2018-10-02T00:19:41.956Z,8.93
2018-10-02T00:22:10.176Z,8.20
2018-10-02T00:24:38.359Z,7.45
2018-10-02T00:27:06.600Z,6.95
2018-10-02T00:29:34.752Z,7.03
2018-10-02T00:32:03.050Z,7.33
2018-10-02T00:34:31.307Z,6.78
2018-10-02T00:36:59.466Z,6.33
2018-10-02T00:39:27.753Z,6.65
2018-10-02T00:41:55.956Z,5.45
2018-10-02T00:44:24.157Z,5.08
2018-10-02T00:46:52.388Z,6.08
2018-10-02T00:49:20.580Z,5.30
2018-10-02T00:51:48.811Z,5.67
2018-10-02T00:54:16.964Z,4.80
2018-10-02T00:56:45.169Z,5.95
2018-10-02T00:59:13.325Z,5.62
2018-10-02T01:01:41.485Z,5.90
2018-10-02T01:04:09.672Z,4.95
2018-10-02T01:06:37.885Z,4.90
2018-10-02T01:09:08.694Z,4.83
2018-10-02T01:11:36.904Z,4.12
2018-10-02T01:14:05.411Z,6.10
2018-10-02T01:16:33.627Z,5.33
2018-10-02T01:19:01.846Z,6.60
2018-10-02T01:21:30.048Z,4.85
2018-10-02T01:23:58.232Z,5.17
2018-10-02T01:26:26.448Z,4.08
2018-10-02T01:28:54.698Z,4.62
2018-10-02T01:31:22.853Z,5.40
2018-10-02T01:33:51.049Z,5.87
2018-10-02T01:36:19.213Z,5.12
2018-10-02T01:38:47.388Z,5.22
2018-10-02T01:41:15.639Z,5.15
2018-10-02T01:43:43.984Z,6.65
2018-10-02T01:46:12.288Z,6.22
2018-10-02T01:48:40.504Z,5.50
2018-10-02T01:51:08.717Z,6.10
2018-10-02T01:53:36.984Z,6.08
2018-10-02T01:56:05.176Z,6.45
2018-10-02T01:58:33.396Z,5.87
2018-10-02T02:01:01.605Z,6.22
2018-10-02T02:03:29.832Z,6.85
2018-10-02T02:05:58.020Z,6.85
2018-10-02T02:08:26.249Z,6.53
2018-10-02T02:10:54.460Z,7.08
2018-10-02T02:13:22.648Z,6.03
2018-10-02T02:15:50.868Z,7.67
2018-10-02T02:18:19.028Z,7.03
2018-10-02T02:20:47.216Z,6.95
2018-10-02T02:23:15.412Z,7.70
2018-10-02T02:25:43.552Z,6.75
2018-10-02T02:28:11.728Z,7.10
2018-10-02T02:30:39.929Z,7.75
2018-10-02T02:33:14.703Z,7.25
2018-10-02T02:35:42.866Z,7.60
2018-10-02T02:38:11.088Z,6.20
2018-10-02T02:40:39.309Z,6.87
2018-10-02T02:43:07.528Z,7.80
2018-10-02T02:45:35.735Z,7.37
2018-10-02T02:48:09.342Z,7.58
2018-10-02T02:51:43.496Z,7.15
2018-10-02T02:54:11.688Z,6.92
2018-10-02T02:56:39.873Z,6.90
2018-10-02T02:59:08.066Z,6.55
2018-10-02T03:01:36.288Z,7.12
2018-10-02T03:04:04.468Z,7.40
2018-10-02T03:06:32.652Z,7.17
2018-10-02T03:09:00.804Z,6.87
2018-10-02T03:11:29.020Z,7.50
2018-10-02T03:13:57.171Z,5.70
2018-10-02T03:16:25.381Z,6.87
2018-10-02T03:18:53.584Z,5.33
2018-10-02T03:21:21.745Z,5.97
2018-10-02T03:23:49.940Z,6.03
2018-10-02T03:26:18.114Z,6.62
2018-10-02T03:28:46.288Z,7.50
2018-10-02T03:31:14.515Z,6.97
2018-10-02T03:33:42.672Z,5.70
2018-10-02T03:36:10.881Z,6.58
2018-10-02T03:38:39.076Z,6.78
2018-10-02T03:41:07.300Z,5.90
2018-10-02T03:43:35.504Z,5.33
2018-10-02T03:46:03.685Z,6.30
2018-10-02T03:48:31.914Z,5.30
2018-10-02T03:51:00.129Z,6.75
2018-10-02T03:53:28.300Z,6.00
2018-10-02T03:55:56.536Z,6.10
2018-10-02T03:58:24.672Z,6.00
2018-10-02T04:00:52.893Z,6.42
2018-10-02T04:03:21.171Z,5.80
2018-10-02T04:05:49.307Z,5.20
2018-10-02T04:08:17.484Z,5.90
2018-10-02T04:10:45.672Z,5.67
2018-10-02T04:13:13.919Z,5.65
2018-10-02T04:15:42.112Z,5.80
2018-10-02T04:18:10.293Z,4.97
2018-10-02T04:20:38.578Z,5.05
2018-10-02T04:23:06.749Z,5.95
2018-10-02T04:25:34.935Z,5.87
2018-10-02T04:28:03.195Z,6.03
2018-10-02T04:30:31.335Z,6.37
2018-10-02T04:32:59.521Z,6.92
2018-10-02T04:35:27.690Z,6.50
2018-10-02T04:37:55.944Z,5.45
2018-10-02T04:40:24.135Z,6.45
2018-10-02T04:42:52.311Z,5.42
2018-10-02T04:45:20.534Z,5.17
2018-10-02T04:47:52.269Z,6.37
2018-10-02T04:50:20.577Z,5.85
2018-10-02T04:52:48.757Z,6.55
2018-10-02T04:55:16.920Z,6.55
2018-10-02T04:57:45.112Z,6.45
2018-10-02T05:00:13.300Z,6.87
2018-10-02T05:02:44.281Z,6.50
2018-10-02T05:05:12.456Z,7.10
2018-10-02T05:07:40.640Z,5.78
2018-10-02T05:10:09.109Z,7.83
2018-10-02T05:12:37.313Z,6.92
2018-10-02T05:15:05.636Z,7.78
2018-10-02T05:17:33.804Z,7.05
2018-10-02T05:20:02.062Z,9.45
2018-10-02T05:22:30.257Z,8.18
2018-10-02T05:24:58.497Z,9.38
2018-10-02T05:27:26.736Z,9.03
2018-10-02T05:29:54.889Z,10.20
2018-10-02T05:32:23.070Z,7.87
2018-10-02T05:34:51.356Z,8.10
2018-10-02T05:37:19.584Z,8.10
2018-10-02T05:39:47.816Z,8.78
2018-10-02T05:42:16.029Z,7.60
2018-10-02T05:44:44.181Z,8.13
2018-10-02T05:47:12.729Z,7.92
2018-10-02T05:49:41.188Z,8.95
2018-10-02T05:52:09.607Z,10.93
2018-10-02T05:54:37.897Z,7.95
2018-10-02T05:57:06.092Z,7.70
2018-10-02T05:59:34.287Z,7.83
2018-10-02T06:02:02.636Z,7.37
2018-10-02T06:04:30.841Z,8.90
2018-10-02T06:06:59.036Z,9.90
2018-10-02T06:09:27.227Z,7.95
2018-10-02T06:11:55.445Z,7.80
2018-10-02T06:14:23.761Z,7.22
2018-10-02T06:16:51.980Z,5.10
2018-10-02T06:19:20.321Z,5.15
2018-10-02T06:21:48.516Z,6.12
2018-10-02T06:24:16.734Z,6.92
2018-10-02T06:26:44.901Z,7.22
2018-10-02T06:29:13.122Z,6.15
2018-10-02T06:31:41.268Z,7.55
2018-10-02T06:34:09.482Z,6.35
2018-10-02T06:36:37.684Z,7.30
2018-10-02T06:39:07.222Z,7.10
2018-10-02T06:41:35.433Z,6.55
2018-10-02T06:44:04.084Z,6.75
2018-10-02T06:46:32.889Z,8.05
2018-10-02T06:49:01.069Z,7.15
2018-10-02T06:51:29.370Z,7.45
2018-10-02T06:53:57.525Z,6.80
2018-10-02T06:56:25.715Z,7.40
2018-10-02T06:58:53.935Z,7.60
2018-10-02T07:01:22.094Z,7.28
2018-10-02T07:03:50.296Z,7.33
2018-10-02T07:06:18.537Z,6.35
2018-10-02T07:08:46.738Z,6.78
2018-10-02T07:11:14.945Z,7.60
2018-10-02T07:13:43.135Z,7.37
2018-10-02T07:16:11.369Z,6.70
2018-10-02T07:18:39.552Z,6.85
2018-10-02T07:21:07.908Z,8.13
2018-10-02T07:23:36.221Z,6.45
2018-10-02T07:26:04.418Z,6.60
2018-10-02T07:28:32.618Z,5.60
2018-10-02T07:31:00.837Z,6.42
2018-10-02T07:33:29.025Z,5.70
2018-10-02T07:35:57.268Z,6.10
2018-10-02T07:38:25.518Z,5.87
2018-10-02T07:40:53.709Z,6.67
2018-10-02T07:43:21.901Z,5.40
2018-10-02T07:45:50.196Z,6.65
2018-10-02T07:48:18.521Z,5.62
2018-10-02T07:50:46.763Z,5.55
2018-10-02T07:53:15.049Z,6.28
2018-10-02T07:55:43.340Z,6.30
2018-10-02T07:58:11.568Z,6.92
2018-10-02T08:00:39.780Z,6.22
2018-10-02T08:03:08.005Z,7.35
2018-10-02T08:05:36.256Z,5.80
2018-10-02T08:08:04.425Z,6.20
2018-10-02T08:10:32.628Z,6.45
2018-10-02T08:13:00.797Z,6.25
2018-10-02T08:15:29.080Z,7.37
2018-10-02T08:17:57.365Z,5.58
2018-10-02T08:20:25.539Z,4.83
2018-10-02T08:22:53.702Z,6.58
2018-10-02T08:25:21.913Z,6.60
2018-10-02T08:27:50.125Z,6.62
2018-10-02T08:30:18.383Z,6.40
2018-10-02T08:32:46.655Z,6.30
2018-10-02T08:35:14.815Z,6.60
2018-10-02T08:37:43.042Z,6.20
2018-10-02T08:40:11.261Z,6.45
2018-10-02T08:42:39.460Z,5.78
2018-10-02T08:45:07.781Z,6.17
2018-10-02T08:47:35.958Z,6.12
2018-10-02T08:50:04.196Z,5.65
2018-10-02T08:52:32.437Z,6.03
2018-10-02T08:55:00.741Z,6.15
2018-10-02T08:57:28.959Z,6.17
2018-10-02T08:59:57.232Z,5.70
2018-10-02T09:02:26.216Z,5.78
2018-10-02T09:04:54.473Z,5.47
2018-10-02T09:07:22.748Z,5.05
2018-10-02T09:09:51.002Z,4.60
2018-10-02T09:12:19.221Z,5.22
2018-10-02T09:14:47.464Z,4.58
2018-10-02T09:17:15.743Z,4.20
2018-10-02T09:19:44.020Z,4.12
2018-10-02T09:22:12.221Z,3.42
2018-10-02T09:24:40.457Z,3.23
2018-10-02T09:27:08.626Z,3.42
2018-10-02T09:29:42.265Z,5.73
2018-10-02T09:32:15.987Z,3.92
2018-10-02T09:34:49.676Z,3.27
2018-10-02T09:37:23.307Z,3.20
2018-10-02T09:39:56.937Z,3.10
2018-10-02T09:42:30.534Z,3.50
2018-10-02T09:44:58.757Z,3.40
2018-10-02T09:47:26.940Z,2.80
2018-10-02T09:49:55.221Z,2.95
2018-10-02T09:52:23.464Z,2.93
2018-10-02T09:54:51.775Z,2.27
2018-10-02T09:57:20.101Z,2.63
2018-10-02T09:59:48.325Z,3.10
2018-10-02T10:02:22.179Z,4.57
2018-10-02T10:04:50.353Z,2.57
2018-10-02T10:07:18.549Z,2.70
2018-10-02T10:09:46.700Z,2.57
2018-10-02T10:12:14.920Z,2.50
2018-10-02T10:14:43.105Z,2.13
2018-10-02T10:17:11.360Z,2.63
2018-10-02T10:19:39.497Z,2.60
2018-10-02T10:22:07.689Z,2.10
2018-10-02T10:24:35.922Z,2.70
2018-10-02T10:27:04.104Z,2.70
2018-10-02T10:29:32.363Z,2.50
2018-10-02T10:32:00.569Z,1.90
2018-10-02T10:34:28.811Z,2.30
2018-10-02T10:36:57.037Z,2.17
2018-10-02T10:39:25.273Z,2.53
2018-10-02T10:41:53.510Z,5.37
2018-10-02T10:44:21.730Z,2.93
2018-10-02T10:46:49.959Z,1.80
2018-10-02T10:49:18.172Z,5.53
2018-10-02T10:51:46.346Z,2.70
2018-10-02T10:54:14.640Z,2.47
2018-10-02T10:56:42.817Z,2.60
2018-10-02T10:59:11.102Z,2.50
2018-10-02T11:01:39.385Z,2.00
2018-10-02T11:04:07.717Z,2.10
2018-10-02T11:06:35.905Z,2.30
2018-10-02T11:09:05.737Z,1.83
2018-10-02T11:11:34.006Z,2.03
2018-10-02T11:14:02.259Z,2.17
2018-10-02T11:16:30.485Z,1.80
2018-10-02T11:18:58.825Z,2.00
2018-10-02T11:21:27.032Z,1.67
2018-10-02T11:23:55.296Z,1.73
2018-10-02T11:26:23.525Z,2.00
2018-10-02T11:28:51.837Z,1.87
2018-10-02T11:31:20.234Z,1.90
2018-10-02T11:33:48.495Z,2.10
2018-10-02T11:36:16.737Z,1.90
2018-10-02T11:38:44.912Z,2.00
2018-10-02T11:41:13.160Z,2.47
2018-10-02T11:43:41.350Z,2.33
2018-10-02T11:46:09.777Z,1.93
2018-10-02T11:48:37.954Z,1.60
2018-10-02T11:51:06.294Z,2.30
2018-10-02T11:53:34.466Z,1.70
2018-10-02T11:56:02.705Z,2.20
2018-10-02T11:58:30.944Z,2.03
2018-10-02T12:00:59.240Z,2.20
2018-10-02T12:03:27.533Z,2.20
2018-10-02T12:05:56.474Z,2.00
2018-10-02T12:08:24.830Z,2.00
2018-10-02T12:10:53.031Z,1.83
2018-10-02T12:13:21.290Z,1.90
2018-10-02T12:15:49.425Z,1.73
2018-10-02T12:18:17.616Z,2.60
2018-10-02T12:20:45.816Z,2.07
2018-10-02T12:23:14.029Z,2.50
2018-10-02T12:25:42.229Z,2.03
2018-10-02T12:28:10.759Z,3.33
2018-10-02T12:30:39.021Z,1.90
2018-10-02T12:33:07.269Z,2.40
2018-10-02T12:35:35.434Z,2.33
2018-10-02T12:38:03.680Z,2.57
2018-10-02T12:40:31.849Z,2.07
2018-10-02T12:43:00.061Z,1.80
2018-10-02T12:45:28.317Z,2.03
2018-10-02T12:47:56.521Z,2.60
2018-10-02T12:50:24.737Z,2.30
2018-10-02T12:52:53.177Z,1.80
2018-10-02T12:55:21.388Z,1.60
2018-10-02T12:57:49.568Z,3.57
2018-10-02T13:00:17.797Z,2.23
2018-10-02T13:02:46.009Z,2.40
2018-10-02T13:05:14.230Z,1.80
2018-10-02T13:07:42.449Z,2.43
2018-10-02T13:10:10.887Z,2.23
2018-10-02T13:12:39.124Z,2.20
2018-10-02T13:15:07.496Z,1.80
2018-10-02T13:17:35.697Z,2.10
2018-10-02T13:20:05.712Z,2.70
2018-10-02T13:22:33.945Z,2.73
2018-10-02T13:25:02.356Z,3.03
2018-10-02T13:27:30.577Z,2.00
2018-10-02T13:29:58.925Z,2.17
2018-10-02T13:32:27.147Z,2.43
2018-10-02T13:34:55.484Z,2.13
2018-10-02T13:37:23.748Z,2.83
2018-10-02T13:39:51.968Z,2.40
2018-10-02T13:42:20.180Z,2.57
2018-10-02T13:44:48.418Z,2.00
2018-10-02T13:47:16.612Z,2.23
2018-10-02T13:49:44.804Z,2.13
2018-10-02T13:52:12.998Z,1.70
2018-10-02T13:54:41.225Z,2.30
2018-10-02T13:57:09.492Z,2.30
2018-10-02T13:59:37.756Z,2.53
2018-10-02T14:02:06.037Z,2.77
2018-10-02T14:04:34.264Z,3.00
2018-10-02T14:07:02.488Z,3.73
2018-10-02T14:09:30.993Z,4.37
2018-10-02T14:11:59.250Z,2.40
2018-10-02T14:14:27.430Z,2.57
2018-10-02T14:16:56.533Z,2.60
2018-10-02T14:19:24.705Z,2.40
2018-10-02T14:21:53.386Z,3.83
2018-10-02T14:24:21.584Z,3.30
2018-10-02T14:26:49.782Z,2.90
2018-10-02T14:29:18.034Z,5.60
2018-10-02T14:31:46.230Z,2.87
2018-10-02T14:34:14.448Z,5.30
2018-10-02T14:36:42.703Z,3.00
2018-10-02T14:39:11.589Z,4.00
2018-10-02T14:41:40.047Z,3.43
2018-10-02T14:44:08.257Z,4.10
2018-10-02T14:46:36.424Z,4.17
2018-10-02T14:49:04.707Z,4.43
2018-10-02T14:51:32.916Z,4.30
2018-10-02T14:54:01.614Z,3.10
2018-10-02T14:56:30.124Z,3.03
2018-10-02T14:58:58.440Z,3.30
2018-10-02T15:01:26.780Z,4.00
2018-10-02T15:03:54.967Z,5.10
2018-10-02T15:06:23.236Z,8.90
2018-10-02T15:08:51.810Z,2.97
2018-10-02T15:11:20.256Z,2.80
2018-10-02T15:13:48.513Z,2.30
2018-10-02T15:16:16.727Z,2.40
2018-10-02T15:18:44.997Z,2.57
2018-10-02T15:21:13.592Z,2.10
2018-10-02T15:23:41.766Z,2.50
2018-10-02T15:26:09.993Z,3.03
2018-10-02T15:28:38.173Z,3.10
2018-10-02T15:31:06.416Z,2.60
2018-10-02T15:33:34.631Z,3.00
2018-10-02T15:36:02.861Z,2.50
2018-10-02T15:38:31.109Z,2.37
2018-10-02T15:40:59.313Z,1.97
2018-10-02T15:43:27.581Z,2.30
2018-10-02T15:45:55.774Z,2.60
2018-10-02T15:48:24.018Z,2.00
2018-10-02T15:50:52.273Z,2.30
2018-10-02T15:53:20.483Z,2.10
2018-10-02T15:55:48.742Z,2.60
2018-10-02T15:58:16.931Z,2.10
2018-10-02T16:00:45.194Z,2.83
2018-10-02T16:03:13.521Z,4.53
2018-10-02T16:05:41.743Z,2.90
2018-10-02T16:08:09.978Z,2.00
2018-10-02T16:10:38.158Z,2.27
2018-10-02T16:13:06.480Z,2.20
2018-10-02T16:15:34.657Z,2.10
2018-10-02T16:18:02.909Z,2.23
2018-10-02T16:20:31.185Z,2.17
2018-10-02T16:22:59.383Z,2.63
2018-10-02T16:25:27.633Z,2.67
2018-10-02T16:27:55.808Z,2.60
2018-10-02T16:30:25.509Z,2.93
2018-10-02T16:32:53.686Z,2.50
2018-10-02T16:35:21.908Z,3.57
2018-10-02T16:37:50.135Z,2.72
2018-10-02T16:40:18.364Z,2.17
2018-10-02T16:42:46.556Z,2.30
2018-10-02T16:45:14.737Z,2.30
2018-10-02T16:47:43.022Z,2.75
2018-10-02T16:50:11.233Z,1.93
2018-10-02T16:52:39.408Z,2.17
2018-10-02T16:55:07.669Z,2.25
2018-10-02T16:57:35.865Z,2.20
2018-10-02T17:00:04.809Z,2.63
2018-10-02T17:02:33.593Z,2.77
2018-10-02T17:05:01.846Z,2.62
2018-10-02T17:07:30.252Z,2.90
2018-10-02T17:09:59.541Z,3.30
2018-10-02T17:12:27.745Z,3.10
2018-10-02T17:14:55.946Z,3.45
2018-10-02T17:17:24.169Z,3.00
2018-10-02T17:19:52.373Z,3.20
2018-10-02T17:22:20.646Z,3.63
2018-10-02T17:24:48.887Z,3.57
2018-10-02T17:27:17.056Z,3.87
2018-10-02T17:29:45.257Z,4.93
2018-10-02T17:32:13.488Z,4.93
2018-10-02T17:34:41.992Z,4.23
2018-10-02T17:37:10.143Z,4.67
2018-10-02T17:39:38.344Z,5.23
2018-10-02T17:42:06.560Z,5.70
2018-10-02T17:44:35.042Z,5.00
2018-10-02T17:47:03.253Z,5.03
2018-10-02T17:49:32.349Z,4.93
2018-10-02T17:52:00.597Z,4.00
2018-10-02T17:54:28.749Z,4.17
2018-10-02T17:56:56.937Z,3.90
2018-10-02T17:59:25.109Z,4.07
2018-10-02T18:01:53.333Z,4.33
2018-10-02T18:04:21.881Z,4.10
2018-10-02T18:06:50.121Z,4.70
2018-10-02T18:09:18.345Z,3.52
2018-10-02T18:11:46.537Z,3.90
2018-10-02T18:14:21.324Z,4.70
2018-10-02T18:16:49.496Z,4.63
2018-10-02T18:19:17.728Z,3.20
2018-10-02T18:21:46.133Z,3.87
2018-10-02T18:24:14.355Z,3.60
2018-10-02T18:26:42.708Z,3.27
2018-10-02T18:29:10.893Z,3.73
2018-10-02T18:31:39.086Z,3.40
2018-10-02T18:34:07.680Z,3.20
2018-10-02T18:36:36.005Z,4.30
2018-10-02T18:39:05.206Z,4.37
2018-10-02T18:41:34.317Z,4.13
2018-10-02T18:44:02.533Z,3.90
2018-10-02T18:46:32.173Z,3.40
2018-10-02T18:49:00.436Z,5.60
2018-10-02T18:51:29.565Z,5.15
2018-10-02T18:53:57.790Z,4.50
2018-10-02T18:56:26.524Z,3.20
2018-10-02T18:58:54.717Z,2.70
2018-10-02T19:01:22.958Z,3.57
2018-10-02T19:03:52.925Z,3.00
2018-10-02T19:06:22.213Z,2.97
2018-10-02T19:08:55.905Z,2.57
2018-10-02T19:11:31.610Z,2.65
2018-10-02T19:14:00.089Z,2.60
2018-10-02T19:16:32.290Z,2.40
2018-10-02T19:19:00.567Z,1.90
2018-10-02T19:21:29.706Z,2.77
2018-10-02T19:23:58.001Z,2.40
2018-10-02T19:26:29.033Z,1.90
2018-10-02T19:28:58.496Z,2.00
2018-10-02T19:31:32.189Z,2.42
2018-10-02T19:34:00.779Z,2.98
2018-10-02T19:36:29.805Z,2.33
2018-10-02T19:39:05.556Z,2.40
2018-10-02T19:41:33.897Z,3.17
2018-10-02T19:44:03.466Z,2.20
2018-10-02T19:46:37.349Z,2.50
2018-10-02T19:49:05.783Z,2.33
2018-10-02T19:51:40.277Z,2.50
2018-10-02T19:54:08.645Z,2.60
2018-10-02T19:56:38.265Z,2.93
2018-10-02T19:59:07.086Z,2.53
2018-10-02T20:01:35.801Z,2.55
2018-10-02T20:04:04.319Z,2.00
2018-10-02T20:06:33.933Z,1.85
2018-10-02T20:09:02.244Z,2.20
2018-10-02T20:11:30.529Z,1.97
2018-10-02T20:13:58.722Z,2.25
2018-10-02T20:16:27.044Z,2.22
2018-10-02T20:18:57.028Z,2.27
2018-10-02T20:21:26.823Z,2.13
2018-10-02T20:23:55.684Z,1.57
2018-10-02T20:26:26.925Z,1.95
2018-10-02T20:28:55.156Z,2.12
2018-10-02T20:31:24.485Z,2.15
2018-10-02T20:33:55.985Z,1.67
2018-10-02T20:36:24.218Z,2.15
2018-10-02T20:38:52.448Z,1.80
2018-10-02T20:41:22.237Z,1.60
2018-10-02T20:43:51.594Z,1.70
2018-10-02T20:46:24.935Z,1.70
2018-10-02T20:48:53.189Z,1.75
2018-10-02T20:51:21.425Z,1.92
2018-10-02T20:53:49.782Z,2.55
2018-10-02T20:56:17.984Z,2.20
2018-10-02T20:58:46.193Z,2.90
2018-10-02T21:01:14.433Z,2.35
2018-10-02T21:03:42.626Z,2.70
2018-10-02T21:06:10.895Z,1.98
2018-10-02T21:08:39.177Z,2.33
2018-10-02T21:11:07.581Z,1.65
2018-10-02T21:13:36.024Z,2.10
2018-10-02T21:16:04.236Z,3.47
2018-10-02T21:18:32.625Z,2.10
2018-10-02T21:21:01.637Z,2.33
2018-10-02T21:23:29.834Z,2.47
2018-10-02T21:25:58.090Z,1.90
2018-10-02T21:28:26.286Z,2.60
2018-10-02T21:30:54.521Z,2.05
2018-10-02T21:33:23.522Z,2.27
2018-10-02T21:35:52.256Z,2.05
2018-10-02T21:38:21.196Z,2.00
2018-10-02T21:40:49.901Z,1.98
2018-10-02T21:43:18.594Z,2.22
2018-10-02T21:45:47.263Z,2.00
2018-10-02T21:48:15.928Z,2.10
2018-10-02T21:50:44.620Z,2.03
2018-10-02T21:53:13.266Z,2.10
2018-10-02T21:55:41.992Z,2.37
2018-10-02T21:58:10.714Z,2.12
2018-10-02T22:00:39.503Z,1.83
2018-10-02T22:03:07.670Z,2.35
2018-10-02T22:05:35.894Z,2.05
2018-10-02T22:08:04.094Z,1.90
2018-10-02T22:10:32.354Z,1.75
2018-10-02T22:13:00.617Z,2.35
2018-10-02T22:15:28.933Z,1.90
2018-10-02T22:17:57.129Z,2.85
2018-10-02T22:20:25.377Z,2.13
2018-10-02T22:22:53.596Z,2.00
2018-10-02T22:25:21.873Z,2.00
2018-10-02T22:27:50.048Z,2.37
2018-10-02T22:30:18.269Z,2.50
2018-10-02T22:32:46.497Z,2.77
2018-10-02T22:35:14.710Z,2.97
2018-10-02T22:37:42.937Z,2.73
2018-10-02T22:40:11.141Z,2.77
2018-10-02T22:42:39.337Z,2.90
2018-10-02T22:45:07.561Z,2.20
2018-10-02T22:47:35.733Z,2.58
2018-10-02T22:50:04.053Z,2.10
2018-10-02T22:52:32.237Z,2.95
2018-10-02T22:55:00.431Z,3.05
2018-10-02T22:57:28.611Z,2.80
2018-10-02T22:59:56.851Z,2.37
2018-10-02T23:02:25.077Z,2.70
2018-10-02T23:04:53.280Z,2.30
2018-10-02T23:07:21.481Z,3.25
2018-10-02T23:09:49.649Z,3.00
2018-10-02T23:12:17.900Z,2.35
2018-10-02T23:14:46.101Z,2.47
2018-10-02T23:17:14.308Z,3.00
2018-10-02T23:19:42.525Z,3.62
2018-10-02T23:22:10.684Z,2.98
2018-10-02T23:24:38.889Z,2.90
2018-10-02T23:27:07.097Z,3.00
2018-10-02T23:29:35.298Z,3.40
2018-10-02T23:32:03.486Z,3.20
2018-10-02T23:34:31.717Z,3.30
2018-10-02T23:37:00.054Z,2.60
2018-10-02T23:39:28.228Z,3.05
2018-10-02T23:41:56.465Z,3.07
2018-10-02T23:44:24.653Z,4.50
2018-10-02T23:46:52.869Z,2.90
2018-10-02T23:49:21.081Z,3.22
2018-10-02T23:51:49.300Z,3.40
2018-10-02T23:54:17.488Z,3.00
2018-10-02T23:56:45.681Z,3.13
2018-10-02T23:59:13.908Z,3.30
